createdAt,value
2023-05-09T00:06:02.043Z,19.20
2023-05-09T00:16:02.128Z,18.30
2023-05-09T00:26:02.059Z,18.10
2023-05-09T00:36:02.046Z,18.20
2023-05-09T00:46:02.124Z,18.00
2023-05-09T00:56:02.179Z,18.50
2023-05-09T01:06:02.104Z,19.10
2023-05-09T01:16:02.147Z,19.20
2023-05-09T01:26:02.098Z,18.10
2023-05-09T01:36:02.105Z,19.10
2023-05-09T01:46:02.076Z,19.70
2023-05-09T01:56:02.106Z,19.90
2023-05-09T02:06:02.184Z,21.10
2023-05-09T02:16:02.107Z,19.30
2023-05-09T02:26:02.109Z,19.00
2023-05-09T02:36:02.129Z,20.90
2023-05-09T02:46:02.203Z,21.10
2023-05-09T02:56:02.093Z,20.40
2023-05-09T03:06:02.121Z,20.40
2023-05-09T03:16:02.161Z,20.30
2023-05-09T03:26:02.134Z,19.40
2023-05-09T03:36:02.120Z,21.30
2023-05-09T03:46:02.106Z,21.00
2023-05-09T03:56:02.126Z,21.60
2023-05-09T04:06:02.154Z,21.40
2023-05-09T04:16:02.228Z,18.10
2023-05-09T04:26:02.148Z,18.70
2023-05-09T04:36:02.206Z,16.40
2023-05-09T04:46:02.238Z,11.60
2023-05-09T04:56:02.155Z,11.40
2023-05-09T05:06:02.168Z,8.60
2023-05-09T05:16:02.225Z,9.60
2023-05-09T05:26:02.172Z,11.90
2023-05-09T05:36:02.256Z,9.70
2023-05-09T05:46:02.191Z,9.60
2023-05-09T05:56:02.182Z,11.10
2023-05-09T06:06:02.205Z,12.50
2023-05-09T06:16:15.122Z,11.90
2023-05-09T06:26:02.186Z,13.50
2023-05-09T06:36:02.314Z,11.80
2023-05-09T06:46:02.310Z,11.80
2023-05-09T06:56:02.209Z,12.00
2023-05-09T07:16:02.210Z,12.90
2023-05-09T07:26:02.214Z,12.60
2023-05-09T07:36:02.307Z,12.40
2023-05-09T07:46:02.277Z,9.80
2023-05-09T07:56:02.214Z,9.80
2023-05-09T08:06:02.245Z,9.40
2023-05-09T08:16:02.295Z,10.50
2023-05-09T08:26:02.255Z,10.40
2023-05-09T08:36:02.249Z,9.60
2023-05-09T08:46:02.276Z,8.00
2023-05-09T08:56:02.273Z,9.90
2023-05-09T09:06:02.352Z,9.00
2023-05-09T09:16:02.318Z,10.30
2023-05-09T09:26:02.329Z,8.70
2023-05-09T09:36:02.295Z,9.10
2023-05-09T09:46:02.289Z,11.20
2023-05-09T09:56:02.287Z,8.40
2023-05-09T10:06:02.260Z,8.60
2023-05-09T10:16:02.345Z,8.30
2023-05-09T10:26:02.266Z,8.70
2023-05-09T10:36:02.379Z,7.30
2023-05-09T10:46:02.293Z,7.70
2023-05-09T10:56:02.302Z,9.80
2023-05-09T11:06:02.284Z,12.60
2023-05-09T11:16:02.371Z,5.80
2023-05-09T11:26:02.329Z,7.20
2023-05-09T11:36:02.349Z,10.30
2023-05-09T11:46:02.357Z,9.40
2023-05-09T11:56:02.321Z,6.80
2023-05-09T12:06:02.355Z,7.00
2023-05-09T12:16:02.402Z,7.50
2023-05-09T12:26:02.347Z,8.00
2023-05-09T12:36:02.409Z,8.80
2023-05-09T12:46:02.487Z,5.70
2023-05-09T12:56:02.396Z,6.60
2023-05-09T13:06:02.366Z,8.00
2023-05-09T13:16:02.420Z,6.50
2023-05-09T13:26:02.405Z,8.10
2023-05-09T13:36:02.436Z,7.20
2023-05-09T13:46:02.399Z,6.30
2023-05-09T13:56:02.414Z,6.80
2023-05-09T14:06:02.412Z,6.10
2023-05-09T14:16:02.452Z,6.40
2023-05-09T14:26:02.453Z,5.90
2023-05-09T14:36:02.423Z,7.80
2023-05-09T14:46:02.390Z,6.60
2023-05-09T14:56:02.436Z,5.70
2023-05-09T15:06:02.447Z,6.50
2023-05-09T15:16:02.426Z,6.60
2023-05-09T15:26:02.430Z,6.70
2023-05-09T15:36:02.415Z,6.20
2023-05-09T15:46:02.502Z,8.30
2023-05-09T15:56:02.459Z,5.50
2023-05-09T16:06:02.442Z,7.80
2023-05-09T16:16:02.485Z,8.30
2023-05-09T16:26:02.476Z,6.00
2023-05-09T16:36:02.493Z,6.40
2023-05-09T16:56:02.492Z,7.80
2023-05-09T17:06:02.479Z,10.70
2023-05-09T17:16:02.503Z,10.00
2023-05-09T17:26:02.480Z,6.70
2023-05-09T17:36:02.480Z,7.90
2023-05-09T17:46:02.630Z,10.70
2023-05-09T17:56:02.565Z,10.20
2023-05-09T18:06:02.503Z,10.80
2023-05-09T18:16:02.539Z,7.90
2023-05-09T18:26:02.500Z,7.70
2023-05-09T18:36:02.603Z,10.70
2023-05-09T18:46:02.519Z,8.80
2023-05-09T18:56:02.521Z,7.60
2023-05-09T19:06:02.540Z,12.00
2023-05-09T19:16:02.543Z,8.10
2023-05-09T19:26:02.534Z,9.60
2023-05-09T19:36:02.543Z,10.40
2023-05-09T19:46:02.608Z,8.40
2023-05-09T19:56:02.674Z,10.50
2023-05-09T20:06:02.557Z,10.80
2023-05-09T20:16:02.592Z,9.90
2023-05-09T20:26:02.577Z,13.60
2023-05-09T20:36:02.562Z,9.30
2023-05-09T20:46:02.675Z,9.60
2023-05-09T20:56:02.547Z,10.80
2023-05-09T21:06:02.575Z,10.50
2023-05-09T21:16:02.586Z,10.60
2023-05-09T21:26:02.589Z,10.50
2023-05-09T21:36:02.580Z,11.70
2023-05-09T21:46:02.687Z,10.20
2023-05-09T21:56:02.729Z,11.50
2023-05-09T22:06:02.606Z,11.40
2023-05-09T22:16:02.614Z,13.90
2023-05-09T22:26:02.579Z,11.80
2023-05-09T22:36:02.600Z,12.90
2023-05-09T22:46:02.625Z,11.40
2023-05-09T22:56:02.820Z,10.70
2023-05-09T23:06:02.603Z,9.30
2023-05-09T23:16:02.740Z,10.90
2023-05-09T23:26:02.609Z,11.70
2023-05-09T23:36:02.634Z,13.40
2023-05-09T23:46:02.724Z,11.20
2023-05-09T23:56:02.707Z,11.30
